<?xml version="1.0" encoding="UTF-8" standalone="no" ?><gpx xmlns="http://www.topografix.com/GPX/1/1" xmlns:gpxx="http://www.garmin.com/xmlschemas/GpxExtensions/v3" xmlns:wptx1="http://www.garmin.com/xmlschemas/WaypointExtension/v1" xmlns:gpxtpx="http://www.garmin.com/xmlschemas/TrackPointExtension/v1" creator="Dakota 20" version="1.1" xmlns:xsi="http://www.w3.org/2001/XMLSchema-instance" xsi:schemaLocation="http://www.topografix.com/GPX/1/1 http://www.topografix.com/GPX/1/1/gpx.xsd http://www.garmin.com/xmlschemas/GpxExtensions/v3 http://www8.garmin.com/xmlschemas/GpxExtensionsv3.xsd http://www.garmin.com/xmlschemas/WaypointExtension/v1 http://www8.garmin.com/xmlschemas/WaypointExtensionv1.xsd http://www.garmin.com/xmlschemas/TrackPointExtension/v1 http://www.garmin.com/xmlschemas/TrackPointExtensionv1.xsd"><metadata><link href="http://www.garmin.com"><text>Garmin International</text></link><time>2014-12-17T15:31:16Z</time></metadata><trk><name>Current Track: 17 DEC 2014 09:58</name><extensions><gpxx:TrackExtension><gpxx:DisplayColor>Cyan</gpxx:DisplayColor></gpxx:TrackExtension></extensions><trkseg><trkpt lat="52.0701613091" lon="-2.1132088825"><ele>21.77</ele><time>2014-12-17T09:58:30Z</time></trkpt><trkpt lat="52.0701615606" lon="-2.1132071223"><ele>21.29</ele><time>2014-12-17T09:58:32Z</time></trkpt><trkpt lat="52.0700944215" lon="-2.1132568270"><ele>20.81</ele><time>2014-12-17T09:58:44Z</time></trkpt><trkpt lat="52.0699559525" lon="-2.1133017540"><ele>20.32</ele><time>2014-12-17T09:58:58Z</time></trkpt><trkpt lat="52.0699429605" lon="-2.1133297496"><ele>20.32</ele><time>2014-12-17T09:59:00Z</time></trkpt><trkpt lat="52.0699261967" lon="-2.1134270635"><ele>20.32</ele><time>2014-12-17T09:59:07Z</time></trkpt><trkpt lat="52.0698319003" lon="-2.1137007326"><ele>19.84</ele><time>2014-12-17T09:59:25Z</time></trkpt><trkpt lat="52.0697479974" lon="-2.1139621641"><ele>18.88</ele><time>2014-12-17T09:59:42Z</time></trkpt><trkpt lat="52.0697304793" lon="-2.1140756551"><ele>18.88</ele><time>2014-12-17T10:00:00Z</time></trkpt><trkpt lat="52.0697277132" lon="-2.1140909102"><ele>18.88</ele><time>2014-12-17T10:00:01Z</time></trkpt><trkpt lat="52.0696831215" lon="-2.1142303851"><ele>18.88</ele><time>2014-12-17T10:00:08Z</time></trkpt><trkpt lat="52.0696768351" lon="-2.1144423634"><ele>17.92</ele><time>2014-12-17T10:00:24Z</time></trkpt><trkpt lat="52.0697075967" lon="-2.1144765615"><ele>18.40</ele><time>2014-12-17T10:00:28Z</time></trkpt><trkpt lat="52.0698220097" lon="-2.1146307886"><ele>18.88</ele><time>2014-12-17T10:00:44Z</time></trkpt><trkpt lat="52.0699782483" lon="-2.1147608757"><ele>18.88</ele><time>2014-12-17T10:01:00Z</time></trkpt><trkpt lat="52.0701649971" lon="-2.1148679126"><ele>18.88</ele><time>2014-12-17T10:01:18Z</time></trkpt><trkpt lat="52.0703385025" lon="-2.1149480436"><ele>18.88</ele><time>2014-12-17T10:01:35Z</time></trkpt><trkpt lat="52.0705094934" lon="-2.1150316112"><ele>19.36</ele><time>2014-12-17T10:01:54Z</time></trkpt><trkpt lat="52.0707433484" lon="-2.1151591837"><ele>19.84</ele><time>2014-12-17T10:02:15Z</time></trkpt><trkpt lat="52.0708130859" lon="-2.1150927152"><ele>20.32</ele><time>2014-12-17T10:02:27Z</time></trkpt><trkpt lat="52.0708314423" lon="-2.1150400769"><ele>20.81</ele><time>2014-12-17T10:02:30Z</time></trkpt><trkpt lat="52.0709197875" lon="-2.1148493886"><ele>21.29</ele><time>2014-12-17T10:02:46Z</time></trkpt><trkpt lat="52.0709579252" lon="-2.1146471333"><ele>21.77</ele><time>2014-12-17T10:03:02Z</time></trkpt><trkpt lat="52.0709694922" lon="-2.1144770645"><ele>21.29</ele><time>2014-12-17T10:03:17Z</time></trkpt><trkpt lat="52.0710440911" lon="-2.1142383479"><ele>22.73</ele><time>2014-12-17T10:03:32Z</time></trkpt><trkpt lat="52.0711766928" lon="-2.1139686182"><ele>22.25</ele><time>2014-12-17T10:03:50Z</time></trkpt><trkpt lat="52.0712733362" lon="-2.1137994714"><ele>22.73</ele><time>2014-12-17T10:04:06Z</time></trkpt><trkpt lat="52.0713724103" lon="-2.1135955397"><ele>23.21</ele><time>2014-12-17T10:04:20Z</time></trkpt><trkpt lat="52.0714591630" lon="-2.1133483574"><ele>23.69</ele><time>2014-12-17T10:04:36Z</time></trkpt><trkpt lat="52.0715113822" lon="-2.1131545678"><ele>23.69</ele><time>2014-12-17T10:04:52Z</time></trkpt><trkpt lat="52.0715447422" lon="-2.1131824795"><ele>23.69</ele><time>2014-12-17T10:04:58Z</time></trkpt><trkpt lat="52.0716466662" lon="-2.1132216230"><ele>23.21</ele><time>2014-12-17T10:05:09Z</time></trkpt><trkpt lat="52.0717977919" lon="-2.1132958028"><ele>24.17</ele><time>2014-12-17T10:05:23Z</time></trkpt><trkpt lat="52.0719528571" lon="-2.1133412328"><ele>23.69</ele><time>2014-12-17T10:05:37Z</time></trkpt><trkpt lat="52.0721345767" lon="-2.1133954637"><ele>23.69</ele><time>2014-12-17T10:05:53Z</time></trkpt><trkpt lat="52.0722429547" lon="-2.1134689730"><ele>23.69</ele><time>2014-12-17T10:06:06Z</time></trkpt><trkpt lat="52.0722437091" lon="-2.1136463340"><ele>23.69</ele><time>2014-12-17T10:06:19Z</time></trkpt><trkpt lat="52.0722266100" lon="-2.1136979666"><ele>23.69</ele><time>2014-12-17T10:06:36Z</time></trkpt><trkpt lat="52.0722071640" lon="-2.1137834620"><ele>23.21</ele><time>2014-12-17T10:06:42Z</time></trkpt><trkpt lat="52.0721745584" lon="-2.1138837934"><ele>23.21</ele><time>2014-12-17T10:06:47Z</time></trkpt><trkpt lat="52.0721834432" lon="-2.1139614098"><ele>23.21</ele><time>2014-12-17T10:06:51Z</time></trkpt><trkpt lat="52.0721461438" lon="-2.1141626593"><ele>22.73</ele><time>2014-12-17T10:07:02Z</time></trkpt><trkpt lat="52.0721370913" lon="-2.1142622363"><ele>22.73</ele><time>2014-12-17T10:07:08Z</time></trkpt><trkpt lat="52.0721202437" lon="-2.1144340653"><ele>22.73</ele><time>2014-12-17T10:07:18Z</time></trkpt><trkpt lat="52.0720922481" lon="-2.1146752965"><ele>22.73</ele><time>2014-12-17T10:07:32Z</time></trkpt><trkpt lat="52.0720738079" lon="-2.1148588601"><ele>22.73</ele><time>2014-12-17T10:07:43Z</time></trkpt><trkpt lat="52.0720319822" lon="-2.1151567530"><ele>22.25</ele><time>2014-12-17T10:08:00Z</time></trkpt><trkpt lat="52.0720096026" lon="-2.1153463516"><ele>22.25</ele><time>2014-12-17T10:08:14Z</time></trkpt><trkpt lat="52.0720460638" lon="-2.1154375467"><ele>22.73</ele><time>2014-12-17T10:08:23Z</time></trkpt><trkpt lat="52.0721072517" lon="-2.1155105531"><ele>22.73</ele><time>2014-12-17T10:08:36Z</time></trkpt><trkpt lat="52.0722261909" lon="-2.1155816317"><ele>22.73</ele><time>2014-12-17T10:08:50Z</time></trkpt><trkpt lat="52.0722712018" lon="-2.1155763511"><ele>22.73</ele><time>2014-12-17T10:08:54Z</time></trkpt><trkpt lat="52.0724417735" lon="-2.1155608445"><ele>22.73</ele><time>2014-12-17T10:09:10Z</time></trkpt><trkpt lat="52.0726475492" lon="-2.1155390516"><ele>23.21</ele><time>2014-12-17T10:09:29Z</time></trkpt><trkpt lat="52.0727945678" lon="-2.1155467629"><ele>23.21</ele><time>2014-12-17T10:09:44Z</time></trkpt><trkpt lat="52.0728470385" lon="-2.1155264787"><ele>23.69</ele><time>2014-12-17T10:09:58Z</time></trkpt><trkpt lat="52.0728229824" lon="-2.1154205315"><ele>24.17</ele><time>2014-12-17T10:10:06Z</time></trkpt><trkpt lat="52.0728483796" lon="-2.1154227108"><ele>23.69</ele><time>2014-12-17T10:10:25Z</time></trkpt><trkpt lat="52.0730917901" lon="-2.1156066097"><ele>23.69</ele><time>2014-12-17T10:10:45Z</time></trkpt><trkpt lat="52.0732761919" lon="-2.1156392992"><ele>23.69</ele><time>2014-12-17T10:10:58Z</time></trkpt><trkpt lat="52.0734709036" lon="-2.1157509461"><ele>23.69</ele><time>2014-12-17T10:11:13Z</time></trkpt><trkpt lat="52.0735094603" lon="-2.1157801989"><ele>23.69</ele><time>2014-12-17T10:11:21Z</time></trkpt><trkpt lat="52.0735206921" lon="-2.1157108806"><ele>23.69</ele><time>2014-12-17T10:11:25Z</time></trkpt><trkpt lat="52.0735693909" lon="-2.1156885847"><ele>24.17</ele><time>2014-12-17T10:11:29Z</time></trkpt><trkpt lat="52.0738001447" lon="-2.1157190949"><ele>24.17</ele><time>2014-12-17T10:11:46Z</time></trkpt><trkpt lat="52.0740587264" lon="-2.1157084499"><ele>24.17</ele><time>2014-12-17T10:12:03Z</time></trkpt><trkpt lat="52.0741514303" lon="-2.1156885009"><ele>23.69</ele><time>2014-12-17T10:12:10Z</time></trkpt><trkpt lat="52.0742081758" lon="-2.1156762633"><ele>23.69</ele><time>2014-12-17T10:12:14Z</time></trkpt><trkpt lat="52.0744127780" lon="-2.1156284865"><ele>24.17</ele><time>2014-12-17T10:12:31Z</time></trkpt><trkpt lat="52.0744619798" lon="-2.1156040113"><ele>24.17</ele><time>2014-12-17T10:12:49Z</time></trkpt><trkpt lat="52.0745532587" lon="-2.1155603416"><ele>23.21</ele><time>2014-12-17T10:13:12Z</time></trkpt><trkpt lat="52.0747281890" lon="-2.1154871676"><ele>23.69</ele><time>2014-12-17T10:13:27Z</time></trkpt><trkpt lat="52.0748836733" lon="-2.1154432464"><ele>23.69</ele><time>2014-12-17T10:13:42Z</time></trkpt><trkpt lat="52.0749979187" lon="-2.1153948829"><ele>23.21</ele><time>2014-12-17T10:13:56Z</time></trkpt><trkpt lat="52.0751059614" lon="-2.1153632831"><ele>23.69</ele><time>2014-12-17T10:14:10Z</time></trkpt><trkpt lat="52.0752864238" lon="-2.1153301746"><ele>22.73</ele><time>2014-12-17T10:14:23Z</time></trkpt><trkpt lat="52.0754585881" lon="-2.1153269894"><ele>22.73</ele><time>2014-12-17T10:14:38Z</time></trkpt><trkpt lat="52.0755767729" lon="-2.1153786220"><ele>21.77</ele><time>2014-12-17T10:14:55Z</time></trkpt><trkpt lat="52.0757230371" lon="-2.1154113114"><ele>22.25</ele><time>2014-12-17T10:15:11Z</time></trkpt><trkpt lat="52.0758840535" lon="-2.1154372953"><ele>21.77</ele><time>2014-12-17T10:15:26Z</time></trkpt><trkpt lat="52.0760262106" lon="-2.1154459286"><ele>20.32</ele><time>2014-12-17T10:15:41Z</time></trkpt><trkpt lat="52.0762241911" lon="-2.1154715773"><ele>18.88</ele><time>2014-12-17T10:15:58Z</time></trkpt><trkpt lat="52.0763850398" lon="-2.1154952981"><ele>16.96</ele><time>2014-12-17T10:16:14Z</time></trkpt><trkpt lat="52.0765318070" lon="-2.1154986508"><ele>15.52</ele><time>2014-12-17T10:16:29Z</time></trkpt><trkpt lat="52.0766904764" lon="-2.1154930349"><ele>14.56</ele><time>2014-12-17T10:16:46Z</time></trkpt><trkpt lat="52.0767202321" lon="-2.1154519636"><ele>14.56</ele><time>2014-12-17T10:16:53Z</time></trkpt><trkpt lat="52.0768678375" lon="-2.1153639536"><ele>13.60</ele><time>2014-12-17T10:17:10Z</time></trkpt><trkpt lat="52.0769633073" lon="-2.1153328568"><ele>13.12</ele><time>2014-12-17T10:17:19Z</time></trkpt><trkpt lat="52.0770988427" lon="-2.1152491216"><ele>12.63</ele><time>2014-12-17T10:17:34Z</time></trkpt><trkpt lat="52.0771288499" lon="-2.1152291726"><ele>12.15</ele><time>2014-12-17T10:17:38Z</time></trkpt><trkpt lat="52.0772222243" lon="-2.1151863411"><ele>12.15</ele><time>2014-12-17T10:17:47Z</time></trkpt><trkpt lat="52.0773898624" lon="-2.1151235607"><ele>11.67</ele><time>2014-12-17T10:18:02Z</time></trkpt><trkpt lat="52.0775916148" lon="-2.1151263267"><ele>10.71</ele><time>2014-12-17T10:18:18Z</time></trkpt><trkpt lat="52.0777494460" lon="-2.1151247341"><ele>10.23</ele><time>2014-12-17T10:18:33Z</time></trkpt><trkpt lat="52.0778769348" lon="-2.1151537355"><ele>10.23</ele><time>2014-12-17T10:18:46Z</time></trkpt><trkpt lat="52.0779179223" lon="-2.1151626203"><ele>10.23</ele><time>2014-12-17T10:18:50Z</time></trkpt><trkpt lat="52.0780687965" lon="-2.1151942201"><ele>10.23</ele><time>2014-12-17T10:19:04Z</time></trkpt><trkpt lat="52.0782107022" lon="-2.1152191143"><ele>10.23</ele><time>2014-12-17T10:19:20Z</time></trkpt><trkpt lat="52.0783698745" lon="-2.1152354591"><ele>10.23</ele><time>2014-12-17T10:19:37Z</time></trkpt><trkpt lat="52.0784131251" lon="-2.1152709983"><ele>10.23</ele><time>2014-12-17T10:19:45Z</time></trkpt><trkpt lat="52.0785997901" lon="-2.1152758598"><ele>10.71</ele><time>2014-12-17T10:19:59Z</time></trkpt><trkpt lat="52.0787152927" lon="-2.1152659692"><ele>10.23</ele><time>2014-12-17T10:20:15Z</time></trkpt><trkpt lat="52.0788768958" lon="-2.1151967347"><ele>10.71</ele><time>2014-12-17T10:20:29Z</time></trkpt><trkpt lat="52.0789733715" lon="-2.1151508018"><ele>10.71</ele><time>2014-12-17T10:20:46Z</time></trkpt><trkpt lat="52.0790037978" lon="-2.1151441801"><ele>10.71</ele><time>2014-12-17T10:21:06Z</time></trkpt><trkpt lat="52.0790834259" lon="-2.1151855029"><ele>10.71</ele><time>2014-12-17T10:21:17Z</time></trkpt><trkpt lat="52.0791200548" lon="-2.1152306814"><ele>9.75</ele><time>2014-12-17T10:21:32Z</time></trkpt><trkpt lat="52.0791714359" lon="-2.1153604332"><ele>10.23</ele><time>2014-12-17T10:21:44Z</time></trkpt><trkpt lat="52.0792103279" lon="-2.1154740918"><ele>10.23</ele><time>2014-12-17T10:21:56Z</time></trkpt><trkpt lat="52.0792531595" lon="-2.1155511215"><ele>9.75</ele><time>2014-12-17T10:22:08Z</time></trkpt><trkpt lat="52.0793441031" lon="-2.1157372836"><ele>9.75</ele><time>2014-12-17T10:22:23Z</time></trkpt><trkpt lat="52.0793765411" lon="-2.1158128884"><ele>10.71</ele><time>2014-12-17T10:22:36Z</time></trkpt><trkpt lat="52.0794669818" lon="-2.1160211787"><ele>10.23</ele><time>2014-12-17T10:22:52Z</time></trkpt><trkpt lat="52.0795478672" lon="-2.1162163932"><ele>10.71</ele><time>2014-12-17T10:23:06Z</time></trkpt><trkpt lat="52.0795943867" lon="-2.1163614839"><ele>10.71</ele><time>2014-12-17T10:23:17Z</time></trkpt><trkpt lat="52.0796172693" lon="-2.1164252702"><ele>10.23</ele><time>2014-12-17T10:23:21Z</time></trkpt><trkpt lat="52.0797048602" lon="-2.1166255977"><ele>10.71</ele><time>2014-12-17T10:23:35Z</time></trkpt><trkpt lat="52.0797865000" lon="-2.1168556809"><ele>10.23</ele><time>2014-12-17T10:23:50Z</time></trkpt><trkpt lat="52.0798446704" lon="-2.1170540806"><ele>10.23</ele><time>2014-12-17T10:24:03Z</time></trkpt><trkpt lat="52.0799171738" lon="-2.1172860917"><ele>10.71</ele><time>2014-12-17T10:24:18Z</time></trkpt><trkpt lat="52.0799391344" lon="-2.1173581760"><ele>10.71</ele><time>2014-12-17T10:24:24Z</time></trkpt><trkpt lat="52.0799460076" lon="-2.1173906140"><ele>10.71</ele><time>2014-12-17T10:24:26Z</time></trkpt><trkpt lat="52.0800100453" lon="-2.1175929531"><ele>11.19</ele><time>2014-12-17T10:24:40Z</time></trkpt><trkpt lat="52.0800171699" lon="-2.1176404785"><ele>10.71</ele><time>2014-12-17T10:24:46Z</time></trkpt><trkpt lat="52.0800274797" lon="-2.1176823881"><ele>11.19</ele><time>2014-12-17T10:24:49Z</time></trkpt><trkpt lat="52.0801043417" lon="-2.1179200150"><ele>10.71</ele><time>2014-12-17T10:25:05Z</time></trkpt><trkpt lat="52.0801707264" lon="-2.1181321610"><ele>10.71</ele><time>2014-12-17T10:25:19Z</time></trkpt><trkpt lat="52.0802401286" lon="-2.1183565445"><ele>10.71</ele><time>2014-12-17T10:25:35Z</time></trkpt><trkpt lat="52.0803008135" lon="-2.1185663436"><ele>10.71</ele><time>2014-12-17T10:25:48Z</time></trkpt><trkpt lat="52.0803465787" lon="-2.1187904757"><ele>11.19</ele><time>2014-12-17T10:26:03Z</time></trkpt><trkpt lat="52.0803423878" lon="-2.1189871989"><ele>10.23</ele><time>2014-12-17T10:26:18Z</time></trkpt><trkpt lat="52.0804176573" lon="-2.1191401687"><ele>10.71</ele><time>2014-12-17T10:26:31Z</time></trkpt><trkpt lat="52.0804744866" lon="-2.1191943996"><ele>10.23</ele><time>2014-12-17T10:26:42Z</time></trkpt><trkpt lat="52.0804879814" lon="-2.1192141809"><ele>11.19</ele><time>2014-12-17T10:26:44Z</time></trkpt><trkpt lat="52.0805655140" lon="-2.1193171944"><ele>10.71</ele><time>2014-12-17T10:26:55Z</time></trkpt><trkpt lat="52.0805896539" lon="-2.1193465311"><ele>10.71</ele><time>2014-12-17T10:26:58Z</time></trkpt><trkpt lat="52.0806340780" lon="-2.1194473654"><ele>10.71</ele><time>2014-12-17T10:27:10Z</time></trkpt><trkpt lat="52.0806712098" lon="-2.1195087209"><ele>10.71</ele><time>2014-12-17T10:27:24Z</time></trkpt><trkpt lat="52.0806815196" lon="-2.1195364650"><ele>9.75</ele><time>2014-12-17T10:27:41Z</time></trkpt><trkpt lat="52.0806844532" lon="-2.1195900254"><ele>10.23</ele><time>2014-12-17T10:27:58Z</time></trkpt><trkpt lat="52.0806821901" lon="-2.1196594276"><ele>9.75</ele><time>2014-12-17T10:28:15Z</time></trkpt><trkpt lat="52.0807059109" lon="-2.1197531372"><ele>9.75</ele><time>2014-12-17T10:28:24Z</time></trkpt><trkpt lat="52.0807505865" lon="-2.1199831367"><ele>9.27</ele><time>2014-12-17T10:28:38Z</time></trkpt><trkpt lat="52.0807534363" lon="-2.1200128086"><ele>9.75</ele><time>2014-12-17T10:28:40Z</time></trkpt><trkpt lat="52.0807594713" lon="-2.1200814564"><ele>9.27</ele><time>2014-12-17T10:28:44Z</time></trkpt><trkpt lat="52.0807432942" lon="-2.1202402934"><ele>9.75</ele><time>2014-12-17T10:28:57Z</time></trkpt><trkpt lat="52.0807331521" lon="-2.1202823706"><ele>9.75</ele><time>2014-12-17T10:29:04Z</time></trkpt><trkpt lat="52.0807107724" lon="-2.1203999687"><ele>10.23</ele><time>2014-12-17T10:29:17Z</time></trkpt><trkpt lat="52.0806998760" lon="-2.1204878949"><ele>8.79</ele><time>2014-12-17T10:29:27Z</time></trkpt><trkpt lat="52.0806660969" lon="-2.1206608973"><ele>9.27</ele><time>2014-12-17T10:29:40Z</time></trkpt><trkpt lat="52.0806592237" lon="-2.1207499970"><ele>9.27</ele><time>2014-12-17T10:29:46Z</time></trkpt><trkpt lat="52.0806479082" lon="-2.1208269428"><ele>10.23</ele><time>2014-12-17T10:29:51Z</time></trkpt><trkpt lat="52.0805978682" lon="-2.1210322995"><ele>10.71</ele><time>2014-12-17T10:30:05Z</time></trkpt><trkpt lat="52.0805984549" lon="-2.1210447047"><ele>10.23</ele><time>2014-12-17T10:30:06Z</time></trkpt><trkpt lat="52.0805521868" lon="-2.1212471277"><ele>9.75</ele><time>2014-12-17T10:30:21Z</time></trkpt><trkpt lat="52.0805307291" lon="-2.1213401668"><ele>10.23</ele><time>2014-12-17T10:30:28Z</time></trkpt><trkpt lat="52.0804739837" lon="-2.1215073857"><ele>10.23</ele><time>2014-12-17T10:30:41Z</time></trkpt><trkpt lat="52.0804307330" lon="-2.1217001695"><ele>10.71</ele><time>2014-12-17T10:30:55Z</time></trkpt><trkpt lat="52.0804147236" lon="-2.1217844076"><ele>10.71</ele><time>2014-12-17T10:31:10Z</time></trkpt><trkpt lat="52.0804079343" lon="-2.1218088828"><ele>10.23</ele><time>2014-12-17T10:31:15Z</time></trkpt><trkpt lat="52.0803498477" lon="-2.1219713241"><ele>9.27</ele><time>2014-12-17T10:31:28Z</time></trkpt><trkpt lat="52.0803306531" lon="-2.1221828833"><ele>10.23</ele><time>2014-12-17T10:31:43Z</time></trkpt><trkpt lat="52.0802866481" lon="-2.1223853063"><ele>10.23</ele><time>2014-12-17T10:31:57Z</time></trkpt><trkpt lat="52.0802536234" lon="-2.1225770842"><ele>9.75</ele><time>2014-12-17T10:32:11Z</time></trkpt><trkpt lat="52.0802234486" lon="-2.1227173135"><ele>9.75</ele><time>2014-12-17T10:32:23Z</time></trkpt><trkpt lat="52.0801812876" lon="-2.1229033917"><ele>10.23</ele><time>2014-12-17T10:32:36Z</time></trkpt><trkpt lat="52.0801712293" lon="-2.1229394339"><ele>9.75</ele><time>2014-12-17T10:32:39Z</time></trkpt><trkpt lat="52.0801462512" lon="-2.1230724547"><ele>10.23</ele><time>2014-12-17T10:32:52Z</time></trkpt><trkpt lat="52.0800868236" lon="-2.1232922282"><ele>9.75</ele><time>2014-12-17T10:33:08Z</time></trkpt><trkpt lat="52.0800528768" lon="-2.1234183758"><ele>10.23</ele><time>2014-12-17T10:33:18Z</time></trkpt><trkpt lat="52.0800410584" lon="-2.1234593634"><ele>9.75</ele><time>2014-12-17T10:33:21Z</time></trkpt><trkpt lat="52.0800128952" lon="-2.1236254927"><ele>9.75</ele><time>2014-12-17T10:33:32Z</time></trkpt><trkpt lat="52.0799751766" lon="-2.1238119900"><ele>9.75</ele><time>2014-12-17T10:33:45Z</time></trkpt><trkpt lat="52.0799389668" lon="-2.1240187716"><ele>9.75</ele><time>2014-12-17T10:33:59Z</time></trkpt><trkpt lat="52.0799217839" lon="-2.1241754293"><ele>9.75</ele><time>2014-12-17T10:34:11Z</time></trkpt><trkpt lat="52.0799119771" lon="-2.1243191790"><ele>9.75</ele><time>2014-12-17T10:34:24Z</time></trkpt><trkpt lat="52.0799049363" lon="-2.1243547183"><ele>9.75</ele><time>2014-12-17T10:34:39Z</time></trkpt><trkpt lat="52.0798979793" lon="-2.1243687160"><ele>9.75</ele><time>2014-12-17T10:34:53Z</time></trkpt><trkpt lat="52.0798961353" lon="-2.1244052611"><ele>9.27</ele><time>2014-12-17T10:35:04Z</time></trkpt><trkpt lat="52.0798773598" lon="-2.1245070174"><ele>9.27</ele><time>2014-12-17T10:35:13Z</time></trkpt><trkpt lat="52.0798579138" lon="-2.1246154793"><ele>9.75</ele><time>2014-12-17T10:35:20Z</time></trkpt><trkpt lat="52.0798160043" lon="-2.1248255298"><ele>9.75</ele><time>2014-12-17T10:35:34Z</time></trkpt><trkpt lat="52.0797778666" lon="-2.1250437107"><ele>9.75</ele><time>2014-12-17T10:35:49Z</time></trkpt><trkpt lat="52.0797375496" lon="-2.1252279449"><ele>10.23</ele><time>2014-12-17T10:36:02Z</time></trkpt><trkpt lat="52.0797328558" lon="-2.1252538450"><ele>9.75</ele><time>2014-12-17T10:36:04Z</time></trkpt><trkpt lat="52.0797289163" lon="-2.1252917312"><ele>9.27</ele><time>2014-12-17T10:36:06Z</time></trkpt><trkpt lat="52.0797183551" lon="-2.1254441142"><ele>9.75</ele><time>2014-12-17T10:36:16Z</time></trkpt><trkpt lat="52.0796698239" lon="-2.1256432682"><ele>9.75</ele><time>2014-12-17T10:36:30Z</time></trkpt><trkpt lat="52.0796627831" lon="-2.1257584356"><ele>8.79</ele><time>2014-12-17T10:36:44Z</time></trkpt><trkpt lat="52.0796305127" lon="-2.1258241497"><ele>9.27</ele><time>2014-12-17T10:36:59Z</time></trkpt><trkpt lat="52.0796168502" lon="-2.1258461941"><ele>9.27</ele><time>2014-12-17T10:37:01Z</time></trkpt><trkpt lat="52.0795256551" lon="-2.1260362118"><ele>9.27</ele><time>2014-12-17T10:37:15Z</time></trkpt><trkpt lat="52.0794924628" lon="-2.1261143312"><ele>9.27</ele><time>2014-12-17T10:37:28Z</time></trkpt><trkpt lat="52.0794865955" lon="-2.1261362918"><ele>8.79</ele><time>2014-12-17T10:37:35Z</time></trkpt><trkpt lat="52.0794755314" lon="-2.1261776984"><ele>9.27</ele><time>2014-12-17T10:37:38Z</time></trkpt><trkpt lat="52.0794593543" lon="-2.1262610145"><ele>8.79</ele><time>2014-12-17T10:37:43Z</time></trkpt><trkpt lat="52.0793874376" lon="-2.1264482662"><ele>9.27</ele><time>2014-12-17T10:37:58Z</time></trkpt><trkpt lat="52.0793813188" lon="-2.1265062690"><ele>8.79</ele><time>2014-12-17T10:38:04Z</time></trkpt><trkpt lat="52.0793648902" lon="-2.1265777666"><ele>8.79</ele><time>2014-12-17T10:38:08Z</time></trkpt><trkpt lat="52.0793278422" lon="-2.1267689578"><ele>8.31</ele><time>2014-12-17T10:38:23Z</time></trkpt><trkpt lat="52.0793178678" lon="-2.1268672775"><ele>7.83</ele><time>2014-12-17T10:38:37Z</time></trkpt><trkpt lat="52.0792687498" lon="-2.1269631665"><ele>7.35</ele><time>2014-12-17T10:38:52Z</time></trkpt><trkpt lat="52.0792021975" lon="-2.1270794235"><ele>8.31</ele><time>2014-12-17T10:39:05Z</time></trkpt><trkpt lat="52.0791948214" lon="-2.1270937566"><ele>8.31</ele><time>2014-12-17T10:39:06Z</time></trkpt><trkpt lat="52.0791020337" lon="-2.1273494046"><ele>7.83</ele><time>2014-12-17T10:39:24Z</time></trkpt><trkpt lat="52.0790372416" lon="-2.1275148634"><ele>8.31</ele><time>2014-12-17T10:39:35Z</time></trkpt><trkpt lat="52.0790263452" lon="-2.1275605448"><ele>8.31</ele><time>2014-12-17T10:39:38Z</time></trkpt><trkpt lat="52.0789542608" lon="-2.1277374867"><ele>7.83</ele><time>2014-12-17T10:39:51Z</time></trkpt><trkpt lat="52.0788821764" lon="-2.1279501356"><ele>8.31</ele><time>2014-12-17T10:40:06Z</time></trkpt><trkpt lat="52.0787941664" lon="-2.1281844936"><ele>7.35</ele><time>2014-12-17T10:40:22Z</time></trkpt><trkpt lat="52.0787234232" lon="-2.1283906046"><ele>7.83</ele><time>2014-12-17T10:40:36Z</time></trkpt><trkpt lat="52.0786313899" lon="-2.1286160778"><ele>7.83</ele><time>2014-12-17T10:40:51Z</time></trkpt><trkpt lat="52.0785645861" lon="-2.1287868172"><ele>8.31</ele><time>2014-12-17T10:41:05Z</time></trkpt><trkpt lat="52.0785337407" lon="-2.1289573051"><ele>7.35</ele><time>2014-12-17T10:41:22Z</time></trkpt><trkpt lat="52.0785184857" lon="-2.1289887372"><ele>7.35</ele><time>2014-12-17T10:41:36Z</time></trkpt><trkpt lat="52.0784602314" lon="-2.1290933434"><ele>7.35</ele><time>2014-12-17T10:41:48Z</time></trkpt><trkpt lat="52.0783710480" lon="-2.1292425413"><ele>7.83</ele><time>2014-12-17T10:42:04Z</time></trkpt><trkpt lat="52.0783215109" lon="-2.1293318924"><ele>6.87</ele><time>2014-12-17T10:42:20Z</time></trkpt><trkpt lat="52.0782371052" lon="-2.1294854488"><ele>7.35</ele><time>2014-12-17T10:42:36Z</time></trkpt><trkpt lat="52.0781511068" lon="-2.1296710242"><ele>7.83</ele><time>2014-12-17T10:42:53Z</time></trkpt><trkpt lat="52.0780260488" lon="-2.1298866905"><ele>7.35</ele><time>2014-12-17T10:43:11Z</time></trkpt><trkpt lat="52.0779480971" lon="-2.1300358884"><ele>7.83</ele><time>2014-12-17T10:43:25Z</time></trkpt><trkpt lat="52.0778323431" lon="-2.1302677318"><ele>6.39</ele><time>2014-12-17T10:43:43Z</time></trkpt><trkpt lat="52.0777250547" lon="-2.1304627787"><ele>7.83</ele><time>2014-12-17T10:43:59Z</time></trkpt><trkpt lat="52.0776162576" lon="-2.1306745894"><ele>7.35</ele><time>2014-12-17T10:44:16Z</time></trkpt><trkpt lat="52.0775237214" lon="-2.1308646072"><ele>7.83</ele><time>2014-12-17T10:44:31Z</time></trkpt><trkpt lat="52.0774345379" lon="-2.1310231090"><ele>7.35</ele><time>2014-12-17T10:44:44Z</time></trkpt><trkpt lat="52.0773321111" lon="-2.1311688703"><ele>7.83</ele><time>2014-12-17T10:44:58Z</time></trkpt><trkpt lat="52.0772785507" lon="-2.1312491689"><ele>7.83</ele><time>2014-12-17T10:45:05Z</time></trkpt><trkpt lat="52.0771472901" lon="-2.1314416174"><ele>7.35</ele><time>2014-12-17T10:45:23Z</time></trkpt><trkpt lat="52.0770846773" lon="-2.1315518394"><ele>7.35</ele><time>2014-12-17T10:45:36Z</time></trkpt><trkpt lat="52.0770181250" lon="-2.1316401847"><ele>7.35</ele><time>2014-12-17T10:45:50Z</time></trkpt><trkpt lat="52.0769718569" lon="-2.1317053121"><ele>7.35</ele><time>2014-12-17T10:46:03Z</time></trkpt><trkpt lat="52.0769576915" lon="-2.1317385882"><ele>6.87</ele><time>2014-12-17T10:46:18Z</time></trkpt><trkpt lat="52.0769361500" lon="-2.1317473892"><ele>6.87</ele><time>2014-12-17T10:46:38Z</time></trkpt><trkpt lat="52.0769288577" lon="-2.1317552682"><ele>6.87</ele><time>2014-12-17T10:46:44Z</time></trkpt><trkpt lat="52.0769021194" lon="-2.1317490656"><ele>6.87</ele><time>2014-12-17T10:46:56Z</time></trkpt><trkpt lat="52.0768722799" lon="-2.1318058111"><ele>7.35</ele><time>2014-12-17T10:47:04Z</time></trkpt><trkpt lat="52.0767513290" lon="-2.1319716051"><ele>6.87</ele><time>2014-12-17T10:47:19Z</time></trkpt><trkpt lat="52.0767019596" lon="-2.1320270933"><ele>6.39</ele><time>2014-12-17T10:47:25Z</time></trkpt><trkpt lat="52.0765868761" lon="-2.1321824100"><ele>6.87</ele><time>2014-12-17T10:47:40Z</time></trkpt><trkpt lat="52.0764844492" lon="-2.1322959010"><ele>6.87</ele><time>2014-12-17T10:47:52Z</time></trkpt><trkpt lat="52.0763928350" lon="-2.1324026864"><ele>6.87</ele><time>2014-12-17T10:48:04Z</time></trkpt><trkpt lat="52.0762691181" lon="-2.1325859148"><ele>6.39</ele><time>2014-12-17T10:48:19Z</time></trkpt><trkpt lat="52.0761502627" lon="-2.1327217855"><ele>6.39</ele><time>2014-12-17T10:48:32Z</time></trkpt><trkpt lat="52.0760521945" lon="-2.1328408085"><ele>6.39</ele><time>2014-12-17T10:48:45Z</time></trkpt><trkpt lat="52.0760250371" lon="-2.1328442451"><ele>6.39</ele><time>2014-12-17T10:48:49Z</time></trkpt><trkpt lat="52.0759808645" lon="-2.1328952070"><ele>6.39</ele><time>2014-12-17T10:48:54Z</time></trkpt><trkpt lat="52.0758784376" lon="-2.1330112964"><ele>6.39</ele><time>2014-12-17T10:49:07Z</time></trkpt><trkpt lat="52.0758609194" lon="-2.1330356877"><ele>6.39</ele><time>2014-12-17T10:49:09Z</time></trkpt><trkpt lat="52.0757176727" lon="-2.1331825387"><ele>6.39</ele><time>2014-12-17T10:49:25Z</time></trkpt><trkpt lat="52.0755869988" lon="-2.1333143860"><ele>6.39</ele><time>2014-12-17T10:49:40Z</time></trkpt><trkpt lat="52.0754509605" lon="-2.1334436350"><ele>6.39</ele><time>2014-12-17T10:49:54Z</time></trkpt><trkpt lat="52.0753327757" lon="-2.1335169766"><ele>6.39</ele><time>2014-12-17T10:50:07Z</time></trkpt><trkpt lat="52.0752218831" lon="-2.1336040646"><ele>5.91</ele><time>2014-12-17T10:50:20Z</time></trkpt><trkpt lat="52.0750617050" lon="-2.1336885542"><ele>6.39</ele><time>2014-12-17T10:50:37Z</time></trkpt><trkpt lat="52.0749579370" lon="-2.1337576210"><ele>5.91</ele><time>2014-12-17T10:50:51Z</time></trkpt><trkpt lat="52.0749077294" lon="-2.1338224970"><ele>6.39</ele><time>2014-12-17T10:51:04Z</time></trkpt><trkpt lat="52.0748657361" lon="-2.1338409372"><ele>5.91</ele><time>2014-12-17T10:51:15Z</time></trkpt><trkpt lat="52.0747970045" lon="-2.1338229161"><ele>6.39</ele><time>2014-12-17T10:51:29Z</time></trkpt><trkpt lat="52.0747198910" lon="-2.1338351537"><ele>5.91</ele><time>2014-12-17T10:51:47Z</time></trkpt><trkpt lat="52.0745967608" lon="-2.1338263527"><ele>6.39</ele><time>2014-12-17T10:52:03Z</time></trkpt><trkpt lat="52.0745117683" lon="-2.1338398475"><ele>5.91</ele><time>2014-12-17T10:52:13Z</time></trkpt><trkpt lat="52.0744012948" lon="-2.1338538453"><ele>6.39</ele><time>2014-12-17T10:52:26Z</time></trkpt><trkpt lat="52.0743230917" lon="-2.1338626463"><ele>6.87</ele><time>2014-12-17T10:52:39Z</time></trkpt><trkpt lat="52.0742327347" lon="-2.1338684298"><ele>5.91</ele><time>2014-12-17T10:52:51Z</time></trkpt><trkpt lat="52.0742226765" lon="-2.1338701900"><ele>6.87</ele><time>2014-12-17T10:52:53Z</time></trkpt><trkpt lat="52.0741836168" lon="-2.1338776499"><ele>5.91</ele><time>2014-12-17T10:52:57Z</time></trkpt><trkpt lat="52.0740490034" lon="-2.1338899713"><ele>6.39</ele><time>2014-12-17T10:53:11Z</time></trkpt><trkpt lat="52.0739232749" lon="-2.1339101717"><ele>5.91</ele><time>2014-12-17T10:53:26Z</time></trkpt><trkpt lat="52.0738442335" lon="-2.1339416038"><ele>6.39</ele><time>2014-12-17T10:53:39Z</time></trkpt><trkpt lat="52.0738131367" lon="-2.1339618042"><ele>6.39</ele><time>2014-12-17T10:53:55Z</time></trkpt><trkpt lat="52.0737408847" lon="-2.1339395922"><ele>6.87</ele><time>2014-12-17T10:54:08Z</time></trkpt><trkpt lat="52.0736386254" lon="-2.1339162905"><ele>6.87</ele><time>2014-12-17T10:54:21Z</time></trkpt><trkpt lat="52.0735329296" lon="-2.1338760573"><ele>6.87</ele><time>2014-12-17T10:54:34Z</time></trkpt><trkpt lat="52.0734520443" lon="-2.1339009516"><ele>6.39</ele><time>2014-12-17T10:54:47Z</time></trkpt><trkpt lat="52.0733916946" lon="-2.1339432802"><ele>5.91</ele><time>2014-12-17T10:55:01Z</time></trkpt><trkpt lat="52.0733406488" lon="-2.1339458786"><ele>6.39</ele><time>2014-12-17T10:55:16Z</time></trkpt><trkpt lat="52.0732024312" lon="-2.1339445375"><ele>6.39</ele><time>2014-12-17T10:55:32Z</time></trkpt><trkpt lat="52.0730568375" lon="-2.1339442022"><ele>6.39</ele><time>2014-12-17T10:55:45Z</time></trkpt><trkpt lat="52.0729336236" lon="-2.1339406818"><ele>6.87</ele><time>2014-12-17T10:55:57Z</time></trkpt><trkpt lat="52.0727947354" lon="-2.1339440346"><ele>6.39</ele><time>2014-12-17T10:56:11Z</time></trkpt><trkpt lat="52.0726801548" lon="-2.1339436993"><ele>6.87</ele><time>2014-12-17T10:56:24Z</time></trkpt><trkpt lat="52.0725716930" lon="-2.1339578647"><ele>6.39</ele><time>2014-12-17T10:56:37Z</time></trkpt><trkpt lat="52.0724427793" lon="-2.1339499857"><ele>6.87</ele><time>2014-12-17T10:56:51Z</time></trkpt><trkpt lat="52.0723210741" lon="-2.1339278575"><ele>6.39</ele><time>2014-12-17T10:57:06Z</time></trkpt><trkpt lat="52.0722836908" lon="-2.1339216549"><ele>6.87</ele><time>2014-12-17T10:57:10Z</time></trkpt><trkpt lat="52.0722346567" lon="-2.1338981856"><ele>6.87</ele><time>2014-12-17T10:57:16Z</time></trkpt><trkpt lat="52.0721204951" lon="-2.1338701062"><ele>7.35</ele><time>2014-12-17T10:57:29Z</time></trkpt><trkpt lat="52.0719671063" lon="-2.1338438708"><ele>7.35</ele><time>2014-12-17T10:57:46Z</time></trkpt><trkpt lat="52.0718489215" lon="-2.1338323038"><ele>7.35</ele><time>2014-12-17T10:58:00Z</time></trkpt><trkpt lat="52.0718299784" lon="-2.1338254306"><ele>6.87</ele><time>2014-12-17T10:58:02Z</time></trkpt><trkpt lat="52.0716850553" lon="-2.1337886341"><ele>6.87</ele><time>2014-12-17T10:58:19Z</time></trkpt><trkpt lat="52.0715330914" lon="-2.1337499935"><ele>6.87</ele><time>2014-12-17T10:58:37Z</time></trkpt><trkpt lat="52.0714874100" lon="-2.1337370854"><ele>7.35</ele><time>2014-12-17T10:58:42Z</time></trkpt><trkpt lat="52.0714307483" lon="-2.1337495744"><ele>6.87</ele><time>2014-12-17T10:58:59Z</time></trkpt><trkpt lat="52.0714144874" lon="-2.1337538492"><ele>6.39</ele><time>2014-12-17T10:59:15Z</time></trkpt><trkpt lat="52.0713697281" lon="-2.1337266918"><ele>6.87</ele><time>2014-12-17T10:59:28Z</time></trkpt><trkpt lat="52.0712727495" lon="-2.1336671803"><ele>6.87</ele><time>2014-12-17T10:59:40Z</time></trkpt><trkpt lat="52.0711391419" lon="-2.1336324792"><ele>6.87</ele><time>2014-12-17T10:59:54Z</time></trkpt><trkpt lat="52.0710299257" lon="-2.1336091775"><ele>6.87</ele><time>2014-12-17T11:00:07Z</time></trkpt><trkpt lat="52.0709417481" lon="-2.1335937548"><ele>6.87</ele><time>2014-12-17T11:00:20Z</time></trkpt><trkpt lat="52.0707967412" lon="-2.1335565392"><ele>6.87</ele><time>2014-12-17T11:00:36Z</time></trkpt><trkpt lat="52.0706795622" lon="-2.1335184015"><ele>5.91</ele><time>2014-12-17T11:00:49Z</time></trkpt><trkpt lat="52.0706414245" lon="-2.1335051581"><ele>6.39</ele><time>2014-12-17T11:00:56Z</time></trkpt><trkpt lat="52.0706033707" lon="-2.1334822755"><ele>5.91</ele><time>2014-12-17T11:01:00Z</time></trkpt><trkpt lat="52.0704662427" lon="-2.1334532741"><ele>6.87</ele><time>2014-12-17T11:01:14Z</time></trkpt><trkpt lat="52.0703417715" lon="-2.1334758215"><ele>6.39</ele><time>2014-12-17T11:01:27Z</time></trkpt><trkpt lat="52.0702830143" lon="-2.1334774978"><ele>6.39</ele><time>2014-12-17T11:01:33Z</time></trkpt><trkpt lat="52.0702591259" lon="-2.1334784199"><ele>6.39</ele><time>2014-12-17T11:01:36Z</time></trkpt><trkpt lat="52.0701354090" lon="-2.1334956866"><ele>6.39</ele><time>2014-12-17T11:01:49Z</time></trkpt><trkpt lat="52.0700173918" lon="-2.1335097682"><ele>6.87</ele><time>2014-12-17T11:02:03Z</time></trkpt><trkpt lat="52.0699053258" lon="-2.1335273702"><ele>6.39</ele><time>2014-12-17T11:02:15Z</time></trkpt><trkpt lat="52.0697671920" lon="-2.1335244365"><ele>6.39</ele><time>2014-12-17T11:02:29Z</time></trkpt><trkpt lat="52.0696305670" lon="-2.1335525159"><ele>6.87</ele><time>2014-12-17T11:02:42Z</time></trkpt><trkpt lat="52.0694894157" lon="-2.1335638314"><ele>6.39</ele><time>2014-12-17T11:02:56Z</time></trkpt><trkpt lat="52.0693389606" lon="-2.1335700341"><ele>6.87</ele><time>2014-12-17T11:03:10Z</time></trkpt><trkpt lat="52.0692066941" lon="-2.1335745603"><ele>6.87</ele><time>2014-12-17T11:03:23Z</time></trkpt><trkpt lat="52.0691126492" lon="-2.1335955989"><ele>6.39</ele><time>2014-12-17T11:03:33Z</time></trkpt><trkpt lat="52.0690732542" lon="-2.1336048190"><ele>6.87</ele><time>2014-12-17T11:03:38Z</time></trkpt><trkpt lat="52.0689273253" lon="-2.1336221695"><ele>7.35</ele><time>2014-12-17T11:03:53Z</time></trkpt><trkpt lat="52.0688988268" lon="-2.1336266957"><ele>6.87</ele><time>2014-12-17T11:03:56Z</time></trkpt><trkpt lat="52.0688134991" lon="-2.1336494945"><ele>6.87</ele><time>2014-12-17T11:04:10Z</time></trkpt><trkpt lat="52.0687905326" lon="-2.1336482372"><ele>6.39</ele><time>2014-12-17T11:04:27Z</time></trkpt><trkpt lat="52.0687396545" lon="-2.1336415317"><ele>6.87</ele><time>2014-12-17T11:04:41Z</time></trkpt><trkpt lat="52.0685788896" lon="-2.1336231753"><ele>6.87</ele><time>2014-12-17T11:04:56Z</time></trkpt><trkpt lat="52.0684706792" lon="-2.1336181462"><ele>7.35</ele><time>2014-12-17T11:05:07Z</time></trkpt><trkpt lat="52.0683071483" lon="-2.1336059924"><ele>7.35</ele><time>2014-12-17T11:05:22Z</time></trkpt><trkpt lat="52.0681678411" lon="-2.1335878037"><ele>6.87</ele><time>2014-12-17T11:05:37Z</time></trkpt><trkpt lat="52.0680151228" lon="-2.1335595567"><ele>6.87</ele><time>2014-12-17T11:05:52Z</time></trkpt><trkpt lat="52.0678758994" lon="-2.1334822755"><ele>7.35</ele><time>2014-12-17T11:06:07Z</time></trkpt><trkpt lat="52.0677748136" lon="-2.1333928406"><ele>7.35</ele><time>2014-12-17T11:06:21Z</time></trkpt><trkpt lat="52.0677582175" lon="-2.1333705448"><ele>7.35</ele><time>2014-12-17T11:06:34Z</time></trkpt><trkpt lat="52.0677591395" lon="-2.1333617438"><ele>6.87</ele><time>2014-12-17T11:06:50Z</time></trkpt><trkpt lat="52.0677585527" lon="-2.1333588939"><ele>1.58</ele><time>2014-12-17T11:06:57Z</time></trkpt><trkpt lat="52.0677586365" lon="-2.1333588101"><ele>18.40</ele><time>2014-12-17T11:06:58Z</time></trkpt><trkpt lat="52.0677587204" lon="-2.1333588101"><ele>7.83</ele><time>2014-12-17T11:06:59Z</time></trkpt><trkpt lat="52.0677587204" lon="-2.1333588101"><ele>6.87</ele><time>2014-12-17T11:07:01Z</time></trkpt><trkpt lat="52.0677600615" lon="-2.1333573852"><ele>8.79</ele><time>2014-12-17T11:07:13Z</time></trkpt><trkpt lat="52.0677598938" lon="-2.1333565470"><ele>7.35</ele><time>2014-12-17T11:07:15Z</time></trkpt><trkpt lat="52.0677594747" lon="-2.1333513502"><ele>7.83</ele><time>2014-12-17T11:07:39Z</time></trkpt><trkpt lat="52.0677606482" lon="-2.1333541162"><ele>7.35</ele><time>2014-12-17T11:08:05Z</time></trkpt><trkpt lat="52.0677413698" lon="-2.1333194990"><ele>6.87</ele><time>2014-12-17T11:08:09Z</time></trkpt><trkpt lat="52.0677044895" lon="-2.1332145575"><ele>7.83</ele><time>2014-12-17T11:08:14Z</time></trkpt><trkpt lat="52.0676741470" lon="-2.1331481729"><ele>7.83</ele><time>2014-12-17T11:08:18Z</time></trkpt><trkpt lat="52.0675780904" lon="-2.1328113042"><ele>6.87</ele><time>2014-12-17T11:08:35Z</time></trkpt><trkpt lat="52.0674835425" lon="-2.1325543988"><ele>7.35</ele><time>2014-12-17T11:08:50Z</time></trkpt><trkpt lat="52.0673967898" lon="-2.1322995052"><ele>7.35</ele><time>2014-12-17T11:09:05Z</time></trkpt><trkpt lat="52.0673783496" lon="-2.1321991738"><ele>7.83</ele><time>2014-12-17T11:09:10Z</time></trkpt><trkpt lat="52.0673254598" lon="-2.1321273409"><ele>7.35</ele><time>2014-12-17T11:09:24Z</time></trkpt><trkpt lat="52.0673063491" lon="-2.1320652310"><ele>7.83</ele><time>2014-12-17T11:09:29Z</time></trkpt><trkpt lat="52.0672936086" lon="-2.1320187952"><ele>7.35</ele><time>2014-12-17T11:09:31Z</time></trkpt><trkpt lat="52.0672795270" lon="-2.1319741197"><ele>7.83</ele><time>2014-12-17T11:09:33Z</time></trkpt><trkpt lat="52.0671990607" lon="-2.1317429468"><ele>6.87</ele><time>2014-12-17T11:09:45Z</time></trkpt><trkpt lat="52.0671069436" lon="-2.1314516757"><ele>7.83</ele><time>2014-12-17T11:09:59Z</time></trkpt><trkpt lat="52.0670100488" lon="-2.1311312355"><ele>7.83</ele><time>2014-12-17T11:10:15Z</time></trkpt><trkpt lat="52.0669326838" lon="-2.1308814548"><ele>7.83</ele><time>2014-12-17T11:10:30Z</time></trkpt><trkpt lat="52.0668432489" lon="-2.1305976436"><ele>7.83</ele><time>2014-12-17T11:10:47Z</time></trkpt><trkpt lat="52.0667575020" lon="-2.1303010918"><ele>7.83</ele><time>2014-12-17T11:11:04Z</time></trkpt><trkpt lat="52.0666818973" lon="-2.1300757024"><ele>7.83</ele><time>2014-12-17T11:11:18Z</time></trkpt><trkpt lat="52.0666199550" lon="-2.1298845951"><ele>7.83</ele><time>2014-12-17T11:11:30Z</time></trkpt><trkpt lat="52.0665326994" lon="-2.1296530031"><ele>7.83</ele><time>2014-12-17T11:11:43Z</time></trkpt><trkpt lat="52.0664200466" lon="-2.1295145340"><ele>7.35</ele><time>2014-12-17T11:11:58Z</time></trkpt><trkpt lat="52.0663906261" lon="-2.1295050625"><ele>7.35</ele><time>2014-12-17T11:12:13Z</time></trkpt><trkpt lat="52.0663643070" lon="-2.1294894721"><ele>6.87</ele><time>2014-12-17T11:12:33Z</time></trkpt><trkpt lat="52.0663528237" lon="-2.1293405257"><ele>6.87</ele><time>2014-12-17T11:12:45Z</time></trkpt><trkpt lat="52.0662728604" lon="-2.1291857958"><ele>6.87</ele><time>2014-12-17T11:12:59Z</time></trkpt><trkpt lat="52.0662348066" lon="-2.1291469876"><ele>6.39</ele><time>2014-12-17T11:13:10Z</time></trkpt><trkpt lat="52.0661297813" lon="-2.1291215066"><ele>6.87</ele><time>2014-12-17T11:13:22Z</time></trkpt><trkpt lat="52.0661260933" lon="-2.1290974505"><ele>7.35</ele><time>2014-12-17T11:13:35Z</time></trkpt><trkpt lat="52.0661101677" lon="-2.1290509310"><ele>6.39</ele><time>2014-12-17T11:13:38Z</time></trkpt><trkpt lat="52.0659705251" lon="-2.1288521122"><ele>6.39</ele><time>2014-12-17T11:13:54Z</time></trkpt><trkpt lat="52.0658896398" lon="-2.1287689637"><ele>6.87</ele><time>2014-12-17T11:14:07Z</time></trkpt><trkpt lat="52.0658926573" lon="-2.1287668683"><ele>6.87</ele><time>2014-12-17T11:14:26Z</time></trkpt><trkpt lat="52.0658882987" lon="-2.1287708916"><ele>7.35</ele><time>2014-12-17T11:14:51Z</time></trkpt><trkpt lat="52.0658866223" lon="-2.1287730709"><ele>10.71</ele><time>2014-12-17T11:15:10Z</time></trkpt><trkpt lat="52.0658871252" lon="-2.1287744120"><ele>5.91</ele><time>2014-12-17T11:15:11Z</time></trkpt><trkpt lat="52.0658876281" lon="-2.1287762560"><ele>-1.30</ele><time>2014-12-17T11:15:13Z</time></trkpt><trkpt lat="52.0658876281" lon="-2.1287771780"><ele>8.31</ele><time>2014-12-17T11:15:14Z</time></trkpt><trkpt lat="52.0658877958" lon="-2.1287789382"><ele>10.71</ele><time>2014-12-17T11:15:16Z</time></trkpt><trkpt lat="52.0658879634" lon="-2.1287812851"><ele>6.39</ele><time>2014-12-17T11:15:18Z</time></trkpt><trkpt lat="52.0658879634" lon="-2.1287822071"><ele>7.35</ele><time>2014-12-17T11:15:19Z</time></trkpt><trkpt lat="52.0658939146" lon="-2.1288014855"><ele>6.87</ele><time>2014-12-17T11:15:51Z</time></trkpt><trkpt lat="52.0658916514" lon="-2.1288065985"><ele>7.35</ele><time>2014-12-17T11:16:22Z</time></trkpt><trkpt lat="52.0658857841" lon="-2.1288091131"><ele>7.35</ele><time>2014-12-17T11:16:57Z</time></trkpt><trkpt lat="52.0658816770" lon="-2.1288076043"><ele>7.83</ele><time>2014-12-17T11:17:35Z</time></trkpt><trkpt lat="52.0658794977" lon="-2.1288088616"><ele>8.31</ele><time>2014-12-17T11:18:10Z</time></trkpt><trkpt lat="52.0658774860" lon="-2.1288106218"><ele>7.83</ele><time>2014-12-17T11:18:51Z</time></trkpt><trkpt lat="52.0658755582" lon="-2.1288094483"><ele>8.31</ele><time>2014-12-17T11:19:24Z</time></trkpt><trkpt lat="52.0658741333" lon="-2.1288109571"><ele>8.31</ele><time>2014-12-17T11:19:58Z</time></trkpt><trkpt lat="52.0658712834" lon="-2.1288111247"><ele>8.31</ele><time>2014-12-17T11:20:29Z</time></trkpt><trkpt lat="52.0658701099" lon="-2.1288112924"><ele>7.35</ele><time>2014-12-17T11:21:05Z</time></trkpt><trkpt lat="52.0658634882" lon="-2.1288029104"><ele>8.31</ele><time>2014-12-17T11:21:40Z</time></trkpt><trkpt lat="52.0658595487" lon="-2.1287993900"><ele>7.83</ele><time>2014-12-17T11:22:11Z</time></trkpt><trkpt lat="52.0658575371" lon="-2.1288010664"><ele>7.83</ele><time>2014-12-17T11:22:42Z</time></trkpt><trkpt lat="52.0658578724" lon="-2.1288065985"><ele>8.31</ele><time>2014-12-17T11:23:20Z</time></trkpt><trkpt lat="52.0658608060" lon="-2.1288086101"><ele>8.31</ele><time>2014-12-17T11:23:45Z</time></trkpt><trkpt lat="52.0658613928" lon="-2.1288088616"><ele>8.31</ele><time>2014-12-17T11:24:15Z</time></trkpt><trkpt lat="52.0658613089" lon="-2.1288046706"><ele>7.83</ele><time>2014-12-17T11:24:46Z</time></trkpt><trkpt lat="52.0658675116" lon="-2.1287990548"><ele>8.31</ele><time>2014-12-17T11:25:10Z</time></trkpt><trkpt lat="52.0658743847" lon="-2.1287910920"><ele>8.31</ele><time>2014-12-17T11:25:39Z</time></trkpt><trkpt lat="52.0658670086" lon="-2.1287234500"><ele>8.31</ele><time>2014-12-17T11:25:56Z</time></trkpt><trkpt lat="52.0658621471" lon="-2.1286858991"><ele>8.79</ele><time>2014-12-17T11:25:58Z</time></trkpt><trkpt lat="52.0657395199" lon="-2.1284840629"><ele>7.83</ele><time>2014-12-17T11:26:13Z</time></trkpt><trkpt lat="52.0656556170" lon="-2.1284200251"><ele>8.31</ele><time>2014-12-17T11:26:25Z</time></trkpt><trkpt lat="52.0656482410" lon="-2.1284092125"><ele>8.31</ele><time>2014-12-17T11:26:26Z</time></trkpt><trkpt lat="52.0655992068" lon="-2.1283430792"><ele>8.31</ele><time>2014-12-17T11:26:31Z</time></trkpt><trkpt lat="52.0654875599" lon="-2.1282075439"><ele>8.31</ele><time>2014-12-17T11:26:44Z</time></trkpt><trkpt lat="52.0653724764" lon="-2.1280954778"><ele>8.31</ele><time>2014-12-17T11:26:59Z</time></trkpt><trkpt lat="52.0653179940" lon="-2.1280526463"><ele>8.31</ele><time>2014-12-17T11:27:11Z</time></trkpt><trkpt lat="52.0652965363" lon="-2.1280290093"><ele>8.31</ele><time>2014-12-17T11:27:13Z</time></trkpt><trkpt lat="52.0651623420" lon="-2.1278899536"><ele>8.31</ele><time>2014-12-17T11:27:28Z</time></trkpt><trkpt lat="52.0650698058" lon="-2.1278040390"><ele>8.31</ele><time>2014-12-17T11:27:40Z</time></trkpt><trkpt lat="52.0649563987" lon="-2.1276726108"><ele>8.31</ele><time>2014-12-17T11:27:54Z</time></trkpt><trkpt lat="52.0649183448" lon="-2.1276209783"><ele>8.31</ele><time>2014-12-17T11:27:58Z</time></trkpt><trkpt lat="52.0648231264" lon="-2.1275187191"><ele>8.31</ele><time>2014-12-17T11:28:09Z</time></trkpt><trkpt lat="52.0647111442" lon="-2.1274126880"><ele>8.31</ele><time>2014-12-17T11:28:22Z</time></trkpt><trkpt lat="52.0647024270" lon="-2.1274073236"><ele>8.31</ele><time>2014-12-17T11:28:23Z</time></trkpt><trkpt lat="52.0646211226" lon="-2.1273485664"><ele>7.83</ele><time>2014-12-17T11:28:36Z</time></trkpt><trkpt lat="52.0645347890" lon="-2.1272835229"><ele>7.83</ele><time>2014-12-17T11:28:51Z</time></trkpt><trkpt lat="52.0644884370" lon="-2.1272064094"><ele>8.31</ele><time>2014-12-17T11:29:08Z</time></trkpt><trkpt lat="52.0644660573" lon="-2.1271992847"><ele>8.31</ele><time>2014-12-17T11:29:24Z</time></trkpt><trkpt lat="52.0644649677" lon="-2.1271998715"><ele>7.83</ele><time>2014-12-17T11:29:27Z</time></trkpt><trkpt lat="52.0644504670" lon="-2.1271800902"><ele>8.79</ele><time>2014-12-17T11:29:29Z</time></trkpt><trkpt lat="52.0644179452" lon="-2.1271677688"><ele>7.83</ele><time>2014-12-17T11:29:40Z</time></trkpt><trkpt lat="52.0643254928" lon="-2.1270548645"><ele>9.27</ele><time>2014-12-17T11:29:48Z</time></trkpt><trkpt lat="52.0641669910" lon="-2.1268557105"><ele>8.79</ele><time>2014-12-17T11:30:03Z</time></trkpt><trkpt lat="52.0640423521" lon="-2.1267116256"><ele>8.31</ele><time>2014-12-17T11:30:16Z</time></trkpt><trkpt lat="52.0639509056" lon="-2.1266401280"><ele>8.31</ele><time>2014-12-17T11:30:28Z</time></trkpt><trkpt lat="52.0639291126" lon="-2.1266209334"><ele>8.31</ele><time>2014-12-17T11:30:31Z</time></trkpt><trkpt lat="52.0638965070" lon="-2.1265814546"><ele>8.31</ele><time>2014-12-17T11:30:35Z</time></trkpt><trkpt lat="52.0638557710" lon="-2.1265382040"><ele>8.31</ele><time>2014-12-17T11:30:40Z</time></trkpt><trkpt lat="52.0637457166" lon="-2.1264213603"><ele>7.83</ele><time>2014-12-17T11:30:53Z</time></trkpt><trkpt lat="52.0636235923" lon="-2.1262585837"><ele>8.79</ele><time>2014-12-17T11:31:07Z</time></trkpt><trkpt lat="52.0635612309" lon="-2.1261612698"><ele>8.31</ele><time>2014-12-17T11:31:14Z</time></trkpt><trkpt lat="52.0634243544" lon="-2.1260241419"><ele>8.31</ele><time>2014-12-17T11:31:28Z</time></trkpt><trkpt lat="52.0632948540" lon="-2.1258974075"><ele>9.27</ele><time>2014-12-17T11:31:40Z</time></trkpt><trkpt lat="52.0632759947" lon="-2.1258800570"><ele>8.79</ele><time>2014-12-17T11:31:45Z</time></trkpt><trkpt lat="52.0632138010" lon="-2.1258225571"><ele>7.83</ele><time>2014-12-17T11:31:54Z</time></trkpt><trkpt lat="52.0631562173" lon="-2.1257066354"><ele>8.31</ele><time>2014-12-17T11:32:08Z</time></trkpt><trkpt lat="52.0631643478" lon="-2.1256631333"><ele>7.83</ele><time>2014-12-17T11:32:21Z</time></trkpt><trkpt lat="52.0631557982" lon="-2.1255969163"><ele>8.79</ele><time>2014-12-17T11:32:33Z</time></trkpt><trkpt lat="52.0631454885" lon="-2.1255779732"><ele>7.83</ele><time>2014-12-17T11:32:45Z</time></trkpt><trkpt lat="52.0631423872" lon="-2.1255716030"><ele>8.79</ele><time>2014-12-17T11:32:48Z</time></trkpt><trkpt lat="52.0631266292" lon="-2.1255560126"><ele>8.79</ele><time>2014-12-17T11:32:50Z</time></trkpt><trkpt lat="52.0629635174" lon="-2.1253640670"><ele>8.79</ele><time>2014-12-17T11:33:05Z</time></trkpt><trkpt lat="52.0629050117" lon="-2.1252436191"><ele>8.79</ele><time>2014-12-17T11:33:13Z</time></trkpt><trkpt lat="52.0628469251" lon="-2.1251720376"><ele>9.27</ele><time>2014-12-17T11:33:19Z</time></trkpt><trkpt lat="52.0627495274" lon="-2.1250349097"><ele>9.27</ele><time>2014-12-17T11:33:29Z</time></trkpt><trkpt lat="52.0626760181" lon="-2.1249458939"><ele>9.75</ele><time>2014-12-17T11:33:41Z</time></trkpt><trkpt lat="52.0626289956" lon="-2.1248315647"><ele>8.79</ele><time>2014-12-17T11:33:49Z</time></trkpt><trkpt lat="52.0625725016" lon="-2.1247160621"><ele>8.79</ele><time>2014-12-17T11:34:02Z</time></trkpt><trkpt lat="52.0625455119" lon="-2.1247792616"><ele>13.12</ele><time>2014-12-17T11:34:19Z</time></trkpt><trkpt lat="52.0625448413" lon="-2.1247831173"><ele>9.75</ele><time>2014-12-17T11:34:20Z</time></trkpt><trkpt lat="52.0625054464" lon="-2.1248627454"><ele>9.27</ele><time>2014-12-17T11:34:39Z</time></trkpt><trkpt lat="52.0624944661" lon="-2.1249054093"><ele>8.79</ele><time>2014-12-17T11:34:59Z</time></trkpt><trkpt lat="52.0624517184" lon="-2.1248702053"><ele>8.79</ele><time>2014-12-17T11:35:15Z</time></trkpt><trkpt lat="52.0624193642" lon="-2.1248168126"><ele>9.27</ele><time>2014-12-17T11:35:33Z</time></trkpt><trkpt lat="52.0623709168" lon="-2.1247562952"><ele>8.79</ele><time>2014-12-17T11:35:39Z</time></trkpt><trkpt lat="52.0623035263" lon="-2.1246246155"><ele>8.79</ele><time>2014-12-17T11:35:47Z</time></trkpt><trkpt lat="52.0621565077" lon="-2.1247876436"><ele>10.23</ele><time>2014-12-17T11:36:07Z</time></trkpt><trkpt lat="52.0621581841" lon="-2.1248201653"><ele>10.23</ele><time>2014-12-17T11:36:28Z</time></trkpt><trkpt lat="52.0621174481" lon="-2.1248994581"><ele>9.75</ele><time>2014-12-17T11:36:51Z</time></trkpt><trkpt lat="52.0620449446" lon="-2.1249317285"><ele>10.23</ele><time>2014-12-17T11:37:05Z</time></trkpt><trkpt lat="52.0618911367" lon="-2.1248160582"><ele>9.75</ele><time>2014-12-17T11:37:19Z</time></trkpt><trkpt lat="52.0618501492" lon="-2.1247704607"><ele>9.27</ele><time>2014-12-17T11:37:38Z</time></trkpt><trkpt lat="52.0617617201" lon="-2.1246537846"><ele>8.79</ele><time>2014-12-17T11:37:47Z</time></trkpt><trkpt lat="52.0616698544" lon="-2.1245689597"><ele>9.27</ele><time>2014-12-17T11:37:54Z</time></trkpt><trkpt lat="52.0615081675" lon="-2.1244191751"><ele>8.79</ele><time>2014-12-17T11:38:08Z</time></trkpt><trkpt lat="52.0613593888" lon="-2.1243090369"><ele>9.27</ele><time>2014-12-17T11:38:24Z</time></trkpt><trkpt lat="52.0612741448" lon="-2.1241879184"><ele>8.79</ele><time>2014-12-17T11:38:35Z</time></trkpt><trkpt lat="52.0611533616" lon="-2.1241317596"><ele>9.27</ele><time>2014-12-17T11:38:49Z</time></trkpt><trkpt lat="52.0611110330" lon="-2.1241234615"><ele>9.27</ele><time>2014-12-17T11:39:02Z</time></trkpt><trkpt lat="52.0610238612" lon="-2.1240531374"><ele>8.79</ele><time>2014-12-17T11:39:19Z</time></trkpt><trkpt lat="52.0609029941" lon="-2.1239778679"><ele>9.75</ele><time>2014-12-17T11:39:34Z</time></trkpt><trkpt lat="52.0607673749" lon="-2.1238834038"><ele>8.79</ele><time>2014-12-17T11:39:51Z</time></trkpt><trkpt lat="52.0606684685" lon="-2.1237901133"><ele>9.27</ele><time>2014-12-17T11:40:09Z</time></trkpt><trkpt lat="52.0605803747" lon="-2.1236633789"><ele>9.27</ele><time>2014-12-17T11:40:24Z</time></trkpt><trkpt lat="52.0605491102" lon="-2.1236176137"><ele>8.79</ele><time>2014-12-17T11:40:48Z</time></trkpt><trkpt lat="52.0605921093" lon="-2.1237063780"><ele>9.27</ele><time>2014-12-17T11:41:04Z</time></trkpt><trkpt lat="52.0605345257" lon="-2.1237549093"><ele>9.75</ele><time>2014-12-17T11:41:19Z</time></trkpt><trkpt lat="52.0605156664" lon="-2.1237486228"><ele>9.75</ele><time>2014-12-17T11:41:21Z</time></trkpt><trkpt lat="52.0604405645" lon="-2.1237106528"><ele>9.27</ele><time>2014-12-17T11:41:34Z</time></trkpt><trkpt lat="52.0604228787" lon="-2.1236992534"><ele>9.27</ele><time>2014-12-17T11:41:36Z</time></trkpt><trkpt lat="52.0603637863" lon="-2.1236819867"><ele>9.75</ele><time>2014-12-17T11:41:41Z</time></trkpt><trkpt lat="52.0603421610" lon="-2.1236560866"><ele>9.75</ele><time>2014-12-17T11:41:43Z</time></trkpt><trkpt lat="52.0602345373" lon="-2.1235477086"><ele>9.27</ele><time>2014-12-17T11:41:54Z</time></trkpt><trkpt lat="52.0601693261" lon="-2.1234809887"><ele>9.75</ele><time>2014-12-17T11:42:07Z</time></trkpt><trkpt lat="52.0601528138" lon="-2.1234115027"><ele>9.27</ele><time>2014-12-17T11:42:24Z</time></trkpt><trkpt lat="52.0601493772" lon="-2.1234654821"><ele>8.79</ele><time>2014-12-17T11:42:44Z</time></trkpt><trkpt lat="52.0601471979" lon="-2.1234780550"><ele>8.31</ele><time>2014-12-17T11:43:14Z</time></trkpt><trkpt lat="52.0601468626" lon="-2.1234791446"><ele>11.67</ele><time>2014-12-17T11:43:16Z</time></trkpt><trkpt lat="52.0601394027" lon="-2.1234763786"><ele>8.79</ele><time>2014-12-17T11:43:18Z</time></trkpt><trkpt lat="52.0601113234" lon="-2.1234773006"><ele>9.75</ele><time>2014-12-17T11:43:34Z</time></trkpt><trkpt lat="52.0600787178" lon="-2.1234225668"><ele>9.75</ele><time>2014-12-17T11:43:52Z</time></trkpt><trkpt lat="52.0599574316" lon="-2.1232785657"><ele>9.75</ele><time>2014-12-17T11:44:08Z</time></trkpt><trkpt lat="52.0597900450" lon="-2.1231046412"><ele>10.23</ele><time>2014-12-17T11:44:28Z</time></trkpt><trkpt lat="52.0596794039" lon="-2.1229814272"><ele>10.23</ele><time>2014-12-17T11:44:41Z</time></trkpt><trkpt lat="52.0595881250" lon="-2.1228137054"><ele>10.23</ele><time>2014-12-17T11:44:57Z</time></trkpt><trkpt lat="52.0595188905" lon="-2.1226947661"><ele>10.23</ele><time>2014-12-17T11:45:08Z</time></trkpt><trkpt lat="52.0594944153" lon="-2.1226590592"><ele>9.75</ele><time>2014-12-17T11:45:11Z</time></trkpt><trkpt lat="52.0594500750" lon="-2.1226189099"><ele>13.12</ele><time>2014-12-17T11:45:19Z</time></trkpt><trkpt lat="52.0594482310" lon="-2.1226160601"><ele>8.31</ele><time>2014-12-17T11:45:20Z</time></trkpt><trkpt lat="52.0594467223" lon="-2.1226197481"><ele>11.19</ele><time>2014-12-17T11:45:25Z</time></trkpt><trkpt lat="52.0593854506" lon="-2.1225746535"><ele>10.71</ele><time>2014-12-17T11:45:39Z</time></trkpt><trkpt lat="52.0593716204" lon="-2.1225804370"><ele>10.71</ele><time>2014-12-17T11:46:06Z</time></trkpt><trkpt lat="52.0593285374" lon="-2.1225645114"><ele>10.71</ele><time>2014-12-17T11:46:19Z</time></trkpt><trkpt lat="52.0593144558" lon="-2.1225543693"><ele>10.71</ele><time>2014-12-17T11:46:40Z</time></trkpt><trkpt lat="52.0592815150" lon="-2.1225238591"><ele>10.71</ele><time>2014-12-17T11:46:54Z</time></trkpt><trkpt lat="52.0592586324" lon="-2.1225340012"><ele>9.75</ele><time>2014-12-17T11:47:12Z</time></trkpt><trkpt lat="52.0592432935" lon="-2.1225345042"><ele>10.23</ele><time>2014-12-17T11:47:38Z</time></trkpt><trkpt lat="52.0592868794" lon="-2.1225650981"><ele>9.75</ele><time>2014-12-17T11:48:03Z</time></trkpt><trkpt lat="52.0592738874" lon="-2.1226537786"><ele>10.23</ele><time>2014-12-17T11:48:24Z</time></trkpt><trkpt lat="52.0592648350" lon="-2.1226709615"><ele>9.75</ele><time>2014-12-17T11:48:51Z</time></trkpt><trkpt lat="52.0593196526" lon="-2.1225837059"><ele>10.23</ele><time>2014-12-17T11:49:11Z</time></trkpt><trkpt lat="52.0593312196" lon="-2.1225586440"><ele>9.75</ele><time>2014-12-17T11:49:32Z</time></trkpt><trkpt lat="52.0593378413" lon="-2.1225537825"><ele>9.75</ele><time>2014-12-17T11:50:01Z</time></trkpt><trkpt lat="52.0593789127" lon="-2.1225789282"><ele>10.23</ele><time>2014-12-17T11:50:27Z</time></trkpt><trkpt lat="52.0593934134" lon="-2.1225790121"><ele>9.75</ele><time>2014-12-17T11:50:52Z</time></trkpt><trkpt lat="52.0594228338" lon="-2.1225886513"><ele>9.75</ele><time>2014-12-17T11:51:11Z</time></trkpt><trkpt lat="52.0594334789" lon="-2.1225858014"><ele>9.27</ele><time>2014-12-17T11:51:36Z</time></trkpt><trkpt lat="52.0595483948" lon="-2.1227988694"><ele>8.79</ele><time>2014-12-17T11:51:56Z</time></trkpt><trkpt lat="52.0597315393" lon="-2.1230798308"><ele>8.79</ele><time>2014-12-17T11:52:15Z</time></trkpt><trkpt lat="52.0597679168" lon="-2.1231155377"><ele>8.31</ele><time>2014-12-17T11:52:18Z</time></trkpt><trkpt lat="52.0599705912" lon="-2.1233392507"><ele>8.79</ele><time>2014-12-17T11:52:38Z</time></trkpt><trkpt lat="52.0600451902" lon="-2.1234207228"><ele>9.27</ele><time>2014-12-17T11:52:56Z</time></trkpt><trkpt lat="52.0601632912" lon="-2.1235704236"><ele>9.75</ele><time>2014-12-17T11:53:14Z</time></trkpt><trkpt lat="52.0602922887" lon="-2.1236608643"><ele>9.75</ele><time>2014-12-17T11:53:33Z</time></trkpt><trkpt lat="52.0602891874" lon="-2.1236595232"><ele>9.75</ele><time>2014-12-17T11:53:41Z</time></trkpt><trkpt lat="52.0602889359" lon="-2.1236585174"><ele>12.63</ele><time>2014-12-17T11:53:43Z</time></trkpt><trkpt lat="52.0602896065" lon="-2.1236561704"><ele>9.75</ele><time>2014-12-17T11:53:45Z</time></trkpt><trkpt lat="52.0602996647" lon="-2.1236565057"><ele>9.75</ele><time>2014-12-17T11:54:06Z</time></trkpt><trkpt lat="52.0603164285" lon="-2.1236563381"><ele>9.75</ele><time>2014-12-17T11:54:36Z</time></trkpt><trkpt lat="52.0603218768" lon="-2.1236580983"><ele>9.27</ele><time>2014-12-17T11:54:55Z</time></trkpt><trkpt lat="52.0603374671" lon="-2.1236692462"><ele>9.27</ele><time>2014-12-17T11:55:21Z</time></trkpt><trkpt lat="52.0604102220" lon="-2.1237126645"><ele>9.27</ele><time>2014-12-17T11:55:38Z</time></trkpt><trkpt lat="52.0607057679" lon="-2.1239067055"><ele>9.27</ele><time>2014-12-17T11:55:56Z</time></trkpt><trkpt lat="52.0609257091" lon="-2.1240263991"><ele>8.79</ele><time>2014-12-17T11:56:16Z</time></trkpt><trkpt lat="52.0609666128" lon="-2.1240532212"><ele>8.79</ele><time>2014-12-17T11:56:37Z</time></trkpt><trkpt lat="52.0610922575" lon="-2.1241796203"><ele>9.27</ele><time>2014-12-17T11:56:55Z</time></trkpt><trkpt lat="52.0612233505" lon="-2.1242298279"><ele>9.75</ele><time>2014-12-17T11:57:12Z</time></trkpt><trkpt lat="52.0613674354" lon="-2.1244045068"><ele>8.79</ele><time>2014-12-17T11:57:30Z</time></trkpt><trkpt lat="52.0614887215" lon="-2.1244800277"><ele>8.31</ele><time>2014-12-17T11:57:50Z</time></trkpt><trkpt lat="52.0615473948" lon="-2.1245920938"><ele>8.79</ele><time>2014-12-17T11:58:10Z</time></trkpt><trkpt lat="52.0616138633" lon="-2.1247356758"><ele>8.79</ele><time>2014-12-17T11:58:27Z</time></trkpt><trkpt lat="52.0618391689" lon="-2.1248861309"><ele>8.79</ele><time>2014-12-17T11:58:44Z</time></trkpt><trkpt lat="52.0620939787" lon="-2.1249003801"><ele>8.79</ele><time>2014-12-17T11:59:03Z</time></trkpt><trkpt lat="52.0621326193" lon="-2.1248178184"><ele>9.27</ele><time>2014-12-17T11:59:20Z</time></trkpt><trkpt lat="52.0622076374" lon="-2.1246775053"><ele>8.31</ele><time>2014-12-17T11:59:39Z</time></trkpt><trkpt lat="52.0622420870" lon="-2.1246222686"><ele>7.83</ele><time>2014-12-17T11:59:57Z</time></trkpt><trkpt lat="52.0623083878" lon="-2.1244701371"><ele>8.31</ele><time>2014-12-17T12:00:14Z</time></trkpt><trkpt lat="52.0623083878" lon="-2.1244696341"><ele>8.31</ele><time>2014-12-17T12:00:16Z</time></trkpt><trkpt lat="52.0623193681" lon="-2.1244294010"><ele>8.31</ele><time>2014-12-17T12:00:19Z</time></trkpt><trkpt lat="52.0623940509" lon="-2.1242931951"><ele>7.83</ele><time>2014-12-17T12:00:32Z</time></trkpt><trkpt lat="52.0624628663" lon="-2.1241574083"><ele>7.83</ele><time>2014-12-17T12:00:46Z</time></trkpt><trkpt lat="52.0625799615" lon="-2.1239777841"><ele>8.79</ele><time>2014-12-17T12:01:01Z</time></trkpt><trkpt lat="52.0627465937" lon="-2.1237743553"><ele>8.79</ele><time>2014-12-17T12:01:19Z</time></trkpt><trkpt lat="52.0628887508" lon="-2.1235746983"><ele>7.83</ele><time>2014-12-17T12:01:35Z</time></trkpt><trkpt lat="52.0629539620" lon="-2.1234840900"><ele>8.31</ele><time>2014-12-17T12:01:43Z</time></trkpt><trkpt lat="52.0630806126" lon="-2.1233143564"><ele>7.83</ele><time>2014-12-17T12:01:57Z</time></trkpt><trkpt lat="52.0632463228" lon="-2.1230889671"><ele>8.31</ele><time>2014-12-17T12:02:13Z</time></trkpt><trkpt lat="52.0632827841" lon="-2.1230424475"><ele>7.83</ele><time>2014-12-17T12:02:17Z</time></trkpt><trkpt lat="52.0633134618" lon="-2.1230008733"><ele>7.83</ele><time>2014-12-17T12:02:21Z</time></trkpt><trkpt lat="52.0634734724" lon="-2.1228049882"><ele>7.83</ele><time>2014-12-17T12:02:37Z</time></trkpt><trkpt lat="52.0636214130" lon="-2.1226090193"><ele>7.83</ele><time>2014-12-17T12:02:52Z</time></trkpt><trkpt lat="52.0637866203" lon="-2.1223757509"><ele>7.83</ele><time>2014-12-17T12:03:11Z</time></trkpt><trkpt lat="52.0638872869" lon="-2.1222080290"><ele>8.31</ele><time>2014-12-17T12:03:24Z</time></trkpt><trkpt lat="52.0640279353" lon="-2.1220009122"><ele>8.31</ele><time>2014-12-17T12:03:41Z</time></trkpt><trkpt lat="52.0640318748" lon="-2.1220174246"><ele>8.31</ele><time>2014-12-17T12:03:54Z</time></trkpt><trkpt lat="52.0640664920" lon="-2.1219624393"><ele>8.31</ele><time>2014-12-17T12:04:02Z</time></trkpt><trkpt lat="52.0640843455" lon="-2.1219218709"><ele>8.31</ele><time>2014-12-17T12:04:05Z</time></trkpt><trkpt lat="52.0642346330" lon="-2.1218334418"><ele>7.83</ele><time>2014-12-17T12:04:22Z</time></trkpt><trkpt lat="52.0644605253" lon="-2.1219325159"><ele>8.79</ele><time>2014-12-17T12:04:41Z</time></trkpt><trkpt lat="52.0646409038" lon="-2.1219453402"><ele>8.31</ele><time>2014-12-17T12:05:01Z</time></trkpt><trkpt lat="52.0648548100" lon="-2.1219339408"><ele>8.31</ele><time>2014-12-17T12:05:20Z</time></trkpt><trkpt lat="52.0650573168" lon="-2.1219573263"><ele>8.79</ele><time>2014-12-17T12:05:37Z</time></trkpt><trkpt lat="52.0650621783" lon="-2.1219704021"><ele>8.31</ele><time>2014-12-17T12:05:56Z</time></trkpt><trkpt lat="52.0652668644" lon="-2.1220311709"><ele>8.31</ele><time>2014-12-17T12:06:14Z</time></trkpt><trkpt lat="52.0654495060" lon="-2.1220914368"><ele>8.79</ele><time>2014-12-17T12:06:34Z</time></trkpt><trkpt lat="52.0655872207" lon="-2.1221646108"><ele>-8.03</ele><time>2014-12-17T12:06:51Z</time></trkpt><trkpt lat="52.0655876398" lon="-2.1221656166"><ele>28.02</ele><time>2014-12-17T12:06:52Z</time></trkpt><trkpt lat="52.0655876398" lon="-2.1221662872"><ele>10.23</ele><time>2014-12-17T12:06:53Z</time></trkpt><trkpt lat="52.0655862987" lon="-2.1221669577"><ele>8.79</ele><time>2014-12-17T12:06:55Z</time></trkpt><trkpt lat="52.0655846223" lon="-2.1221724898"><ele>5.42</ele><time>2014-12-17T12:07:03Z</time></trkpt><trkpt lat="52.0655847900" lon="-2.1221724898"><ele>6.39</ele><time>2014-12-17T12:07:04Z</time></trkpt><trkpt lat="52.0655845385" lon="-2.1221741661"><ele>11.19</ele><time>2014-12-17T12:07:10Z</time></trkpt><trkpt lat="52.0655845385" lon="-2.1221741661"><ele>10.71</ele><time>2014-12-17T12:07:11Z</time></trkpt><trkpt lat="52.0655845385" lon="-2.1221741661"><ele>6.39</ele><time>2014-12-17T12:07:13Z</time></trkpt><trkpt lat="52.0655840356" lon="-2.1221756749"><ele>9.75</ele><time>2014-12-17T12:07:14Z</time></trkpt><trkpt lat="52.0655832812" lon="-2.1221776027"><ele>8.31</ele><time>2014-12-17T12:07:15Z</time></trkpt><trkpt lat="52.0655825268" lon="-2.1221797820"><ele>7.83</ele><time>2014-12-17T12:07:16Z</time></trkpt><trkpt lat="52.0655815210" lon="-2.1221826319"><ele>5.91</ele><time>2014-12-17T12:07:17Z</time></trkpt><trkpt lat="52.0655810181" lon="-2.1221838892"><ele>26.57</ele><time>2014-12-17T12:07:18Z</time></trkpt><trkpt lat="52.0655802637" lon="-2.1221860684"><ele>11.67</ele><time>2014-12-17T12:07:19Z</time></trkpt><trkpt lat="52.0655824430" lon="-2.1221719868"><ele>8.79</ele><time>2014-12-17T12:07:22Z</time></trkpt><trkpt lat="52.0656124502" lon="-2.1221468411"><ele>9.75</ele><time>2014-12-17T12:07:38Z</time></trkpt><trkpt lat="52.0656196587" lon="-2.1220101323"><ele>9.27</ele><time>2014-12-17T12:07:45Z</time></trkpt><trkpt lat="52.0656443853" lon="-2.1219662111"><ele>9.75</ele><time>2014-12-17T12:07:49Z</time></trkpt><trkpt lat="52.0656621549" lon="-2.1219258942"><ele>9.27</ele><time>2014-12-17T12:07:52Z</time></trkpt><trkpt lat="52.0656916592" lon="-2.1218638681"><ele>9.75</ele><time>2014-12-17T12:07:57Z</time></trkpt><trkpt lat="52.0657082554" lon="-2.1217740979"><ele>9.27</ele><time>2014-12-17T12:08:02Z</time></trkpt><trkpt lat="52.0657901466" lon="-2.1215487923"><ele>9.27</ele><time>2014-12-17T12:08:17Z</time></trkpt><trkpt lat="52.0658607222" lon="-2.1213538293"><ele>9.27</ele><time>2014-12-17T12:08:29Z</time></trkpt><trkpt lat="52.0659357402" lon="-2.1211385820"><ele>10.23</ele><time>2014-12-17T12:08:43Z</time></trkpt><trkpt lat="52.0660228282" lon="-2.1208932437"><ele>11.67</ele><time>2014-12-17T12:08:58Z</time></trkpt><trkpt lat="52.0661174599" lon="-2.1206909046"><ele>13.12</ele><time>2014-12-17T12:09:14Z</time></trkpt><trkpt lat="52.0661247522" lon="-2.1205968596"><ele>13.60</ele><time>2014-12-17T12:09:28Z</time></trkpt><trkpt lat="52.0661625545" lon="-2.1206072532"><ele>14.08</ele><time>2014-12-17T12:09:49Z</time></trkpt><trkpt lat="52.0661964174" lon="-2.1205628291"><ele>14.08</ele><time>2014-12-17T12:10:09Z</time></trkpt><trkpt lat="52.0663948171" lon="-2.1204790939"><ele>15.04</ele><time>2014-12-17T12:10:28Z</time></trkpt><trkpt lat="52.0664954837" lon="-2.1204029862"><ele>15.52</ele><time>2014-12-17T12:10:37Z</time></trkpt><trkpt lat="52.0666016825" lon="-2.1201770101"><ele>15.52</ele><time>2014-12-17T12:10:53Z</time></trkpt><trkpt lat="52.0666886028" lon="-2.1199804544"><ele>15.52</ele><time>2014-12-17T12:11:08Z</time></trkpt><trkpt lat="52.0668122359" lon="-2.1197192743"><ele>16.00</ele><time>2014-12-17T12:11:27Z</time></trkpt><trkpt lat="52.0668561570" lon="-2.1196373831"><ele>16.48</ele><time>2014-12-17T12:11:33Z</time></trkpt><trkpt lat="52.0669844840" lon="-2.1194747742"><ele>16.00</ele><time>2014-12-17T12:11:47Z</time></trkpt><trkpt lat="52.0671196003" lon="-2.1192773804"><ele>16.48</ele><time>2014-12-17T12:12:04Z</time></trkpt><trkpt lat="52.0672426466" lon="-2.1190500632"><ele>16.48</ele><time>2014-12-17T12:12:23Z</time></trkpt><trkpt lat="52.0673555508" lon="-2.1188115980"><ele>16.96</ele><time>2014-12-17T12:12:41Z</time></trkpt><trkpt lat="52.0673611667" lon="-2.1187960077"><ele>17.44</ele><time>2014-12-17T12:12:54Z</time></trkpt><trkpt lat="52.0674591511" lon="-2.1185386833"><ele>17.92</ele><time>2014-12-17T12:13:13Z</time></trkpt><trkpt lat="52.0674659405" lon="-2.1185279544"><ele>17.92</ele><time>2014-12-17T12:13:14Z</time></trkpt><trkpt lat="52.0675315708" lon="-2.1184560377"><ele>17.92</ele><time>2014-12-17T12:13:22Z</time></trkpt><trkpt lat="52.0675776713" lon="-2.1183751523"><ele>17.92</ele><time>2014-12-17T12:13:36Z</time></trkpt><trkpt lat="52.0676541142" lon="-2.1183079295"><ele>17.92</ele><time>2014-12-17T12:13:51Z</time></trkpt><trkpt lat="52.0678170584" lon="-2.1181698795"><ele>18.88</ele><time>2014-12-17T12:14:09Z</time></trkpt><trkpt lat="52.0679992810" lon="-2.1180432290"><ele>18.88</ele><time>2014-12-17T12:14:30Z</time></trkpt><trkpt lat="52.0681615546" lon="-2.1178954560"><ele>18.88</ele><time>2014-12-17T12:14:48Z</time></trkpt><trkpt lat="52.0682685915" lon="-2.1177936159"><ele>18.88</ele><time>2014-12-17T12:15:06Z</time></trkpt><trkpt lat="52.0683121774" lon="-2.1177539695"><ele>19.36</ele><time>2014-12-17T12:15:11Z</time></trkpt><trkpt lat="52.0684037916" lon="-2.1176777780"><ele>19.36</ele><time>2014-12-17T12:15:24Z</time></trkpt><trkpt lat="52.0685293525" lon="-2.1175165102"><ele>18.88</ele><time>2014-12-17T12:15:37Z</time></trkpt><trkpt lat="52.0685798954" lon="-2.1175102238"><ele>19.84</ele><time>2014-12-17T12:15:43Z</time></trkpt><trkpt lat="52.0686196256" lon="-2.1174683981"><ele>19.36</ele><time>2014-12-17T12:15:47Z</time></trkpt><trkpt lat="52.0687193703" lon="-2.1172406618"><ele>19.36</ele><time>2014-12-17T12:16:03Z</time></trkpt><trkpt lat="52.0687621180" lon="-2.1171736065"><ele>18.88</ele><time>2014-12-17T12:16:09Z</time></trkpt><trkpt lat="52.0688052848" lon="-2.1170806512"><ele>18.88</ele><time>2014-12-17T12:16:16Z</time></trkpt><trkpt lat="52.0688425843" lon="-2.1169721056"><ele>18.88</ele><time>2014-12-17T12:16:32Z</time></trkpt><trkpt lat="52.0688678138" lon="-2.1168933157"><ele>18.88</ele><time>2014-12-17T12:16:47Z</time></trkpt><trkpt lat="52.0688704960" lon="-2.1168382466"><ele>18.88</ele><time>2014-12-17T12:17:03Z</time></trkpt><trkpt lat="52.0689535607" lon="-2.1167271025"><ele>18.88</ele><time>2014-12-17T12:17:17Z</time></trkpt><trkpt lat="52.0689898543" lon="-2.1166685969"><ele>18.40</ele><time>2014-12-17T12:17:29Z</time></trkpt><trkpt lat="52.0690910239" lon="-2.1164630726"><ele>18.40</ele><time>2014-12-17T12:17:44Z</time></trkpt><trkpt lat="52.0691605099" lon="-2.1162645891"><ele>18.40</ele><time>2014-12-17T12:17:57Z</time></trkpt><trkpt lat="52.0692350250" lon="-2.1160462406"><ele>18.88</ele><time>2014-12-17T12:18:10Z</time></trkpt><trkpt lat="52.0692794491" lon="-2.1158888284"><ele>18.40</ele><time>2014-12-17T12:18:19Z</time></trkpt><trkpt lat="52.0692909323" lon="-2.1158011537"><ele>19.84</ele><time>2014-12-17T12:18:31Z</time></trkpt><trkpt lat="52.0693097916" lon="-2.1157187596"><ele>22.25</ele><time>2014-12-17T12:18:49Z</time></trkpt><trkpt lat="52.0693128090" lon="-2.1156545542"><ele>24.17</ele><time>2014-12-17T12:19:09Z</time></trkpt><trkpt lat="52.0693333447" lon="-2.1156593319"><ele>24.17</ele><time>2014-12-17T12:19:40Z</time></trkpt><trkpt lat="52.0693242084" lon="-2.1156357788"><ele>24.17</ele><time>2014-12-17T12:20:02Z</time></trkpt><trkpt lat="52.0693252143" lon="-2.1156206913"><ele>24.65</ele><time>2014-12-17T12:20:29Z</time></trkpt><trkpt lat="52.0693346020" lon="-2.1155694779"><ele>24.65</ele><time>2014-12-17T12:20:52Z</time></trkpt><trkpt lat="52.0693401340" lon="-2.1155647002"><ele>22.25</ele><time>2014-12-17T12:21:10Z</time></trkpt><trkpt lat="52.0694407169" lon="-2.1155931149"><ele>19.36</ele><time>2014-12-17T12:21:23Z</time></trkpt><trkpt lat="52.0694586542" lon="-2.1155716572"><ele>19.36</ele><time>2014-12-17T12:21:25Z</time></trkpt><trkpt lat="52.0694828779" lon="-2.1155263111"><ele>19.36</ele><time>2014-12-17T12:21:29Z</time></trkpt><trkpt lat="52.0695328340" lon="-2.1153330244"><ele>19.84</ele><time>2014-12-17T12:21:42Z</time></trkpt><trkpt lat="52.0695440657" lon="-2.1153020114"><ele>19.84</ele><time>2014-12-17T12:21:44Z</time></trkpt><trkpt lat="52.0695836283" lon="-2.1150827408"><ele>19.84</ele><time>2014-12-17T12:21:58Z</time></trkpt><trkpt lat="52.0695950277" lon="-2.1150524821"><ele>20.32</ele><time>2014-12-17T12:22:00Z</time></trkpt><trkpt lat="52.0696198381" lon="-2.1148435213"><ele>20.32</ele><time>2014-12-17T12:22:13Z</time></trkpt><trkpt lat="52.0696336683" lon="-2.1148140170"><ele>19.84</ele><time>2014-12-17T12:22:16Z</time></trkpt><trkpt lat="52.0696541201" lon="-2.1146395057"><ele>20.32</ele><time>2014-12-17T12:22:31Z</time></trkpt><trkpt lat="52.0696407929" lon="-2.1144969296"><ele>20.32</ele><time>2014-12-17T12:22:43Z</time></trkpt><trkpt lat="52.0696839597" lon="-2.1143556945"><ele>20.81</ele><time>2014-12-17T12:22:52Z</time></trkpt><trkpt lat="52.0697039086" lon="-2.1142595541"><ele>20.81</ele><time>2014-12-17T12:22:58Z</time></trkpt><trkpt lat="52.0697385259" lon="-2.1142047364"><ele>20.32</ele><time>2014-12-17T12:23:02Z</time></trkpt><trkpt lat="52.0697758254" lon="-2.1141023096"><ele>21.29</ele><time>2014-12-17T12:23:10Z</time></trkpt><trkpt lat="52.0697850455" lon="-2.1140529402"><ele>20.81</ele><time>2014-12-17T12:23:13Z</time></trkpt><trkpt lat="52.0698386058" lon="-2.1138263773"><ele>21.77</ele><time>2014-12-17T12:23:29Z</time></trkpt><trkpt lat="52.0698854607" lon="-2.1137188375"><ele>21.77</ele><time>2014-12-17T12:23:43Z</time></trkpt><trkpt lat="52.0699326508" lon="-2.1135061886"><ele>22.25</ele><time>2014-12-17T12:23:55Z</time></trkpt><trkpt lat="52.0699792542" lon="-2.1133132372"><ele>22.25</ele><time>2014-12-17T12:24:09Z</time></trkpt><trkpt lat="52.0701587945" lon="-2.1133097168"><ele>23.21</ele><time>2014-12-17T12:24:26Z</time></trkpt><trkpt lat="52.0701802522" lon="-2.1133222897"><ele>23.21</ele><time>2014-12-17T12:24:45Z</time></trkpt><trkpt lat="52.0701992791" lon="-2.1133173443"><ele>23.69</ele><time>2014-12-17T12:25:00Z</time></trkpt><trkpt lat="52.0701893046" lon="-2.1132954676"><ele>23.69</ele><time>2014-12-17T12:25:24Z</time></trkpt><trkpt lat="52.0701935794" lon="-2.1132873371"><ele>23.69</ele><time>2014-12-17T12:25:26Z</time></trkpt></trkseg></trk></gpx>